Time,TemperatureF,DewpointF,PressureIn,WindDirection,WindDirectionDegrees,WindSpeedMPH,WindSpeedGustMPH,Humidity,HourlyPrecipIn,Conditions,Clouds,dailyrainin,SoftwareType,DateUTC
2013-07-04 00:00:00,72.1,68.3,29.87,NNE,26,1.0,10.0,88,0.00,,,0.00,Wunderground v.1.15,2013-07-04 05:00:00,
2013-07-04 00:05:00,72.0,68.2,29.87,NE,37,2.0,10.0,88,0.00,,,0.00,Wunderground v.1.15,2013-07-04 05:05:00,
2013-07-04 00:10:00,71.9,68.2,29.87,NE,37,2.0,2.0,88,0.00,,,0.00,Wunderground v.1.15,2013-07-04 05:10:00,
2013-07-04 00:15:00,71.7,68.0,29.87,NE,38,2.0,3.0,88,0.00,,,0.00,Wunderground v.1.15,2013-07-04 05:15:00,
2013-07-04 00:20:00,71.5,67.8,29.87,NE,38,2.0,2.0,88,0.00,,,0.00,Wunderground v.1.15,2013-07-04 05:20:00,
2013-07-04 00:25:00,71.4,68.0,29.87,NE,52,2.0,3.0,89,0.00,,,0.00,Wunderground v.1.15,2013-07-04 05:25:00,
2013-07-04 00:30:00,71.3,67.9,29.87,NE,44,2.0,2.0,89,0.00,,,0.00,Wunderground v.1.15,2013-07-04 05:30:00,
2013-07-04 00:35:00,71.3,67.9,29.87,NE,51,2.0,4.0,89,0.00,,,0.00,Wunderground v.1.15,2013-07-04 05:35:00,
2013-07-04 00:40:00,71.2,67.8,29.86,NE,51,1.0,4.0,89,0.00,,,0.00,Wunderground v.1.15,2013-07-04 05:40:00,
2013-07-04 00:45:00,71.1,67.7,29.86,NE,51,1.0,4.0,89,0.00,,,0.00,Wunderground v.1.15,2013-07-04 05:45:00,
2013-07-04 00:50:00,70.9,67.5,29.86,NE,50,1.0,1.0,89,0.00,,,0.00,Wunderground v.1.15,2013-07-04 05:50:00,
2013-07-04 00:55:00,70.8,67.4,29.86,NE,50,1.0,4.0,89,0.00,,,0.00,Wunderground v.1.15,2013-07-04 05:55:00,
2013-07-04 01:00:00,70.6,67.5,29.86,NE,50,0.0,4.0,90,0.00,,,0.00,Wunderground v.1.15,2013-07-04 06:00:00,
2013-07-04 01:05:00,70.4,67.3,29.86,NE,50,0.0,4.0,90,0.00,,,0.00,Wunderground v.1.15,2013-07-04 06:05:00,
2013-07-04 01:10:00,70.2,67.1,29.86,NE,49,0.0,4.0,90,0.00,,,0.00,Wunderground v.1.15,2013-07-04 06:10:00,
2013-07-04 01:15:00,70.0,66.9,29.86,NE,50,0.0,4.0,90,0.00,,,0.00,Wunderground v.1.15,2013-07-04 06:15:00,
2013-07-04 01:20:00,69.9,66.8,29.86,NE,50,0.0,4.0,90,0.00,,,0.00,Wunderground v.1.15,2013-07-04 06:20:00,
2013-07-04 01:25:00,69.7,67.0,29.86,NE,49,0.0,4.0,91,0.00,,,0.00,Wunderground v.1.15,2013-07-04 06:25:00,
2013-07-04 01:30:00,69.6,66.9,29.86,NE,50,0.0,4.0,91,0.00,,,0.00,Wunderground v.1.15,2013-07-04 06:30:00,
2013-07-04 01:35:00,69.4,66.7,29.86,NE,49,0.0,4.0,91,0.00,,,0.00,Wunderground v.1.15,2013-07-04 06:35:00,
2013-07-04 01:40:00,69.3,66.6,29.86,NE,50,0.0,4.0,91,0.00,,,0.00,Wunderground v.1.15,2013-07-04 06:40:00,
2013-07-04 01:45:00,69.2,66.8,29.86,NE,49,0.0,4.0,92,0.00,,,0.00,Wunderground v.1.15,2013-07-04 06:45:00,
2013-07-04 01:55:00,68.9,66.5,29.85,NE,50,0.0,4.0,92,0.00,,,0.00,Wunderground v.1.15,2013-07-04 06:55:00,
2013-07-04 02:00:00,68.9,66.5,29.85,NE,50,1.0,4.0,92,0.00,,,0.00,Wunderground v.1.15,2013-07-04 07:00:00,
2013-07-04 02:05:00,69.0,66.9,29.85,NE,49,1.0,4.0,93,0.00,,,0.00,Wunderground v.1.15,2013-07-04 07:05:00,
2013-07-04 02:10:00,69.0,66.9,29.85,NE,43,2.0,4.0,93,0.00,,,0.00,Wunderground v.1.15,2013-07-04 07:10:00,
2013-07-04 02:15:00,69.2,67.1,29.85,NE,42,1.0,4.0,93,0.00,,,0.00,Wunderground v.1.15,2013-07-04 07:15:00,
2013-07-04 02:20:00,69.2,67.1,29.85,NE,42,1.0,4.0,93,0.00,,,0.00,Wunderground v.1.15,2013-07-04 07:20:00,
2013-07-04 02:25:00,69.3,67.2,29.85,NE,42,1.0,4.0,93,0.00,,,0.00,Wunderground v.1.15,2013-07-04 07:25:00,
2013-07-04 02:30:00,69.2,67.1,29.85,NE,42,1.0,4.0,93,0.00,,,0.00,Wunderground v.1.15,2013-07-04 07:30:00,
2013-07-04 02:35:00,69.2,67.1,29.85,NE,42,1.0,4.0,93,0.00,,,0.00,Wunderground v.1.15,2013-07-04 07:35:00,
2013-07-04 02:40:00,69.2,67.1,29.85,NE,42,1.0,4.0,93,0.00,,,0.00,Wunderground v.1.15,2013-07-04 07:40:00,
2013-07-04 02:45:00,69.3,67.2,29.85,NE,42,1.0,4.0,93,0.00,,,0.00,Wunderground v.1.15,2013-07-04 07:45:00,
2013-07-04 02:50:00,69.2,67.1,29.85,NE,42,1.0,4.0,93,0.00,,,0.00,Wunderground v.1.15,2013-07-04 07:50:00,
2013-07-04 02:55:00,69.2,67.1,29.85,NE,42,1.0,4.0,93,0.00,,,0.00,Wunderground v.1.15,2013-07-04 07:55:00,
2013-07-04 03:00:00,69.2,67.1,29.85,NE,42,1.0,4.0,93,0.00,,,0.00,Wunderground v.1.15,2013-07-04 08:00:00,
2013-07-04 03:05:00,69.2,67.1,29.85,NE,43,1.0,4.0,93,0.00,,,0.00,Wunderground v.1.15,2013-07-04 08:05:00,
2013-07-04 03:10:00,69.2,67.1,29.84,NE,42,1.0,4.0,93,0.00,,,0.00,Wunderground v.1.15,2013-07-04 08:10:00,
2013-07-04 03:15:00,69.0,66.9,29.84,NE,43,1.0,4.0,93,0.00,,,0.00,Wunderground v.1.15,2013-07-04 08:15:00,
2013-07-04 03:20:00,69.1,67.0,29.84,NE,43,1.0,4.0,93,0.00,,,0.00,Wunderground v.1.15,2013-07-04 08:20:00,
2013-07-04 03:25:00,69.1,67.0,29.84,NE,43,1.0,4.0,93,0.00,,,0.00,Wunderground v.1.15,2013-07-04 08:25:00,
2013-07-04 03:30:00,69.1,67.0,29.84,NE,43,1.0,4.0,93,0.00,,,0.00,Wunderground v.1.15,2013-07-04 08:30:00,
2013-07-04 03:35:00,69.1,67.0,29.84,NE,43,1.0,4.0,93,0.00,,,0.00,Wunderground v.1.15,2013-07-04 08:35:00,
2013-07-04 03:40:00,69.1,67.0,29.84,NE,53,1.0,4.0,93,0.00,,,0.00,Wunderground v.1.15,2013-07-04 08:40:00,
2013-07-04 03:45:00,69.1,67.0,29.84,NE,37,2.0,4.0,93,0.00,,,0.00,Wunderground v.1.15,2013-07-04 08:45:00,
2013-07-04 03:50:00,69.1,67.0,29.84,NE,44,2.0,4.0,93,0.00,,,0.00,Wunderground v.1.15,2013-07-04 08:50:00,
2013-07-04 03:55:00,69.1,67.3,29.84,NE,44,1.0,4.0,94,0.00,,,0.00,Wunderground v.1.15,2013-07-04 08:55:00,
2013-07-04 04:00:00,69.1,67.0,29.84,NE,44,1.0,1.0,93,0.00,,,0.00,Wunderground v.1.15,2013-07-04 09:00:00,
2013-07-04 04:05:00,69.0,66.9,29.84,NE,44,0.0,4.0,93,0.00,,,0.00,Wunderground v.1.15,2013-07-04 09:05:00,
2013-07-04 04:10:00,68.8,66.7,29.84,NE,44,0.0,4.0,93,0.00,,,0.00,Wunderground v.1.15,2013-07-04 09:10:00,
2013-07-04 04:15:00,68.7,66.6,29.84,NE,44,0.0,4.0,93,0.00,,,0.00,Wunderground v.1.15,2013-07-04 09:15:00,
2013-07-04 04:20:00,68.6,66.5,29.84,NE,44,0.0,4.0,93,0.00,,,0.00,Wunderground v.1.15,2013-07-04 09:20:00,
2013-07-04 04:25:00,68.4,66.3,29.84,NE,44,0.0,4.0,93,0.00,,,0.00,Wunderground v.1.15,2013-07-04 09:25:00,
2013-07-04 04:30:00,68.2,66.1,29.84,NE,44,0.0,4.0,93,0.00,,,0.00,Wunderground v.1.15,2013-07-04 09:30:00,
2013-07-04 04:35:00,68.1,66.0,29.84,NE,44,0.0,4.0,93,0.00,,,0.00,Wunderground v.1.15,2013-07-04 09:35:00,
2013-07-04 04:40:00,68.1,66.3,29.84,NE,44,0.0,4.0,94,0.00,,,0.00,Wunderground v.1.15,2013-07-04 09:40:00,
2013-07-04 04:45:00,68.1,66.3,29.84,NE,44,1.0,4.0,94,0.00,,,0.00,Wunderground v.1.15,2013-07-04 09:45:00,
2013-07-04 04:50:00,68.3,66.5,29.84,NE,44,1.0,4.0,94,0.00,,,0.00,Wunderground v.1.15,2013-07-04 09:50:00,
2013-07-04 04:55:00,68.3,66.5,29.84,NE,44,0.0,4.0,94,0.00,,,0.00,Wunderground v.1.15,2013-07-04 09:55:00,
2013-07-04 05:00:00,68.3,66.5,29.84,NE,44,0.0,4.0,94,0.00,,,0.00,Wunderground v.1.15,2013-07-04 10:00:00,
2013-07-04 05:05:00,68.4,66.6,29.84,NE,44,1.0,4.0,94,0.00,,,0.00,Wunderground v.1.15,2013-07-04 10:05:00,
2013-07-04 05:10:00,68.5,66.7,29.84,NE,44,1.0,1.0,94,0.00,,,0.00,Wunderground v.1.15,2013-07-04 10:10:00,
2013-07-04 05:15:00,68.5,66.7,29.84,NE,44,1.0,1.0,94,0.00,,,0.00,Wunderground v.1.15,2013-07-04 10:15:00,
2013-07-04 05:20:00,68.5,66.7,29.84,NE,44,1.0,1.0,94,0.00,,,0.00,Wunderground v.1.15,2013-07-04 10:20:00,
2013-07-04 05:25:00,68.5,66.7,29.85,NE,44,1.0,1.0,94,0.00,,,0.00,Wunderground v.1.15,2013-07-04 10:25:00,
2013-07-04 05:30:00,68.3,66.5,29.85,NE,44,0.0,1.0,94,0.00,,,0.00,Wunderground v.1.15,2013-07-04 10:30:00,
2013-07-04 05:35:00,68.3,66.5,29.85,NE,44,1.0,2.0,94,0.00,,,0.00,Wunderground v.1.15,2013-07-04 10:35:00,
2013-07-04 05:40:00,68.2,66.4,29.85,NE,41,1.0,2.0,94,0.00,,,0.00,Wunderground v.1.15,2013-07-04 10:40:00,
2013-07-04 05:45:00,68.1,66.3,29.85,NE,41,2.0,2.0,94,0.00,,,0.00,Wunderground v.1.15,2013-07-04 10:45:00,
2013-07-04 05:50:00,68.1,66.3,29.85,NE,41,1.0,1.0,94,0.00,,,0.00,Wunderground v.1.15,2013-07-04 10:50:00,
2013-07-04 05:55:00,68.0,66.2,29.86,NE,41,1.0,3.0,94,0.00,,,0.00,Wunderground v.1.15,2013-07-04 10:55:00,
2013-07-04 06:00:00,68.0,66.2,29.86,NE,41,1.0,1.0,94,0.00,,,0.00,Wunderground v.1.15,2013-07-04 11:00:00,
2013-07-04 06:05:00,67.9,66.1,29.86,NE,41,1.0,1.0,94,0.00,,,0.00,Wunderground v.1.15,2013-07-04 11:05:00,
2013-07-04 06:10:00,67.9,66.1,29.86,NE,41,1.0,3.0,94,0.00,,,0.00,Wunderground v.1.15,2013-07-04 11:10:00,
2013-07-04 06:20:00,68.0,66.5,29.86,NE,41,2.0,2.0,95,0.00,,,0.00,Wunderground v.1.15,2013-07-04 11:20:00,
2013-07-04 06:25:00,68.0,66.5,29.86,NE,41,1.0,2.0,95,0.00,,,0.00,Wunderground v.1.15,2013-07-04 11:25:00,
2013-07-04 06:30:00,68.0,66.5,29.86,NE,41,1.0,2.0,95,0.00,,,0.00,Wunderground v.1.15,2013-07-04 11:30:00,
2013-07-04 06:35:00,68.0,66.5,29.86,NE,38,2.0,3.0,95,0.00,,,0.00,Wunderground v.1.15,2013-07-04 11:35:00,
2013-07-04 06:40:00,68.0,66.5,29.85,NE,51,2.0,2.0,95,0.00,,,0.00,Wunderground v.1.15,2013-07-04 11:40:00,
2013-07-04 06:45:00,68.1,66.6,29.85,NE,48,2.0,3.0,95,0.00,,,0.00,Wunderground v.1.15,2013-07-04 11:45:00,
2013-07-04 06:50:00,68.2,66.7,29.85,NE,41,2.0,2.0,95,0.00,,,0.00,Wunderground v.1.15,2013-07-04 11:50:00,
2013-07-04 06:55:00,68.2,66.7,29.85,NE,46,2.0,2.0,95,0.00,,,0.00,Wunderground v.1.15,2013-07-04 11:55:00,
2013-07-04 07:00:00,68.3,66.8,29.85,NE,51,2.0,2.0,95,0.00,,,0.00,Wunderground v.1.15,2013-07-04 12:00:00,
2013-07-04 07:05:00,68.3,66.8,29.85,NNE,25,2.0,2.0,95,0.00,,,0.00,Wunderground v.1.15,2013-07-04 12:05:00,
2013-07-04 07:10:00,68.4,66.9,29.85,NNE,26,1.0,1.0,95,0.00,,,0.00,Wunderground v.1.15,2013-07-04 12:10:00,
2013-07-04 07:15:00,68.5,67.0,29.85,NNE,32,1.0,3.0,95,0.00,,,0.00,Wunderground v.1.15,2013-07-04 12:15:00,
2013-07-04 07:20:00,68.6,67.1,29.85,NNE,32,2.0,2.0,95,0.00,,,0.00,Wunderground v.1.15,2013-07-04 12:20:00,
2013-07-04 07:25:00,68.7,67.2,29.85,NE,46,2.0,2.0,95,0.00,,,0.00,Wunderground v.1.15,2013-07-04 12:25:00,
2013-07-04 07:30:00,68.8,67.3,29.85,NE,46,1.0,1.0,95,0.00,,,0.00,Wunderground v.1.15,2013-07-04 12:30:00,
2013-07-04 07:35:00,68.9,67.7,29.85,NE,46,1.0,1.0,96,0.00,,,0.00,Wunderground v.1.15,2013-07-04 12:35:00,
2013-07-04 07:40:00,68.9,67.7,29.85,NE,40,1.0,1.0,96,0.00,,,0.00,Wunderground v.1.15,2013-07-04 12:40:00,
2013-07-04 07:45:00,69.0,67.8,29.85,NE,42,1.0,1.0,96,0.00,,,0.00,Wunderground v.1.15,2013-07-04 12:45:00,
2013-07-04 07:50:00,69.0,67.8,29.85,NE,42,1.0,1.0,96,0.00,,,0.00,Wunderground v.1.15,2013-07-04 12:50:00,
2013-07-04 08:00:00,69.0,67.8,29.86,NE,44,1.0,2.0,96,0.00,,,0.00,Wunderground v.1.15,2013-07-04 13:00:00,
2013-07-04 08:05:00,69.0,67.8,29.86,NE,51,2.0,2.0,96,0.00,,,0.00,Wunderground v.1.15,2013-07-04 13:05:00,
2013-07-04 08:10:00,69.0,67.8,29.86,ENE,62,2.0,3.0,96,0.00,,,0.00,Wunderground v.1.15,2013-07-04 13:10:00,
2013-07-04 08:15:00,68.9,67.7,29.86,NE,56,2.0,3.0,96,0.00,,,0.00,Wunderground v.1.15,2013-07-04 13:15:00,
2013-07-04 08:20:00,69.1,67.9,29.86,NE,56,2.0,2.0,96,0.00,,,0.00,Wunderground v.1.15,2013-07-04 13:20:00,
2013-07-04 08:25:00,69.2,68.0,29.87,NNE,32,1.0,2.0,96,0.00,,,0.00,Wunderground v.1.15,2013-07-04 13:25:00,
2013-07-04 08:30:00,69.2,68.0,29.87,NE,42,2.0,2.0,96,0.00,,,0.00,Wunderground v.1.15,2013-07-04 13:30:00,
2013-07-04 08:35:00,69.3,68.1,29.87,NNE,28,2.0,2.0,96,0.00,,,0.00,Wunderground v.1.15,2013-07-04 13:35:00,
2013-07-04 08:40:00,69.5,68.3,29.87,NE,46,2.0,3.0,96,0.00,,,0.00,Wunderground v.1.15,2013-07-04 13:40:00,
2013-07-04 08:45:00,69.6,68.4,29.87,NNE,19,2.0,3.0,96,0.00,,,0.00,Wunderground v.1.15,2013-07-04 13:45:00,
2013-07-04 08:50:00,69.7,68.5,29.87,NE,53,2.0,7.0,96,0.00,,,0.00,Wunderground v.1.15,2013-07-04 13:50:00,
2013-07-04 08:55:00,69.7,68.5,29.87,NE,48,3.0,7.0,96,0.00,,,0.00,Wunderground v.1.15,2013-07-04 13:55:00,
2013-07-04 09:00:00,69.9,68.7,29.87,NNE,25,3.0,3.0,96,0.00,,,0.00,Wunderground v.1.15,2013-07-04 14:00:00,
2013-07-04 09:05:00,70.0,68.8,29.87,NNE,32,3.0,3.0,96,0.00,,,0.00,Wunderground v.1.15,2013-07-04 14:05:00,
2013-07-04 09:10:00,70.1,68.9,29.87,NE,41,3.0,3.0,96,0.00,,,0.00,Wunderground v.1.15,2013-07-04 14:10:00,
2013-07-04 09:15:00,70.2,69.0,29.87,NNE,33,3.0,4.0,96,0.00,,,0.00,Wunderground v.1.15,2013-07-04 14:15:00,
2013-07-04 09:20:00,70.2,69.0,29.87,NNE,24,4.0,4.0,96,0.00,,,0.00,Wunderground v.1.15,2013-07-04 14:20:00,
2013-07-04 09:25:00,70.3,69.1,29.87,NE,54,3.0,5.0,96,0.00,,,0.00,Wunderground v.1.15,2013-07-04 14:25:00,
2013-07-04 09:30:00,70.4,69.2,29.87,NE,41,3.0,3.0,96,0.00,,,0.00,Wunderground v.1.15,2013-07-04 14:30:00,
2013-07-04 09:35:00,70.5,69.3,29.87,NE,49,2.0,3.0,96,0.00,,,0.00,Wunderground v.1.15,2013-07-04 14:35:00,
2013-07-04 09:40:00,70.7,69.2,29.88,NE,44,2.0,2.0,95,0.00,,,0.00,Wunderground v.1.15,2013-07-04 14:40:00,
2013-07-04 09:45:00,70.9,69.7,29.88,NNE,18,2.0,2.0,96,0.00,,,0.00,Wunderground v.1.15,2013-07-04 14:45:00,
2013-07-04 09:50:00,70.9,69.4,29.88,NE,35,2.0,2.0,95,0.00,,,0.00,Wunderground v.1.15,2013-07-04 14:50:00,
2013-07-04 09:55:00,71.1,69.6,29.89,NE,51,3.0,3.0,95,0.00,,,0.00,Wunderground v.1.15,2013-07-04 14:55:00,
2013-07-04 10:00:00,71.3,69.8,29.89,ENE,59,2.0,4.0,95,0.00,,,0.00,Wunderground v.1.15,2013-07-04 15:00:00,
2013-07-04 10:05:00,71.5,69.7,29.89,NE,37,2.0,4.0,94,0.00,,,0.00,Wunderground v.1.15,2013-07-04 15:05:00,
2013-07-04 10:10:00,71.8,70.0,29.89,NE,42,2.0,2.0,94,0.00,,,0.00,Wunderground v.1.15,2013-07-04 15:10:00,
2013-07-04 10:15:00,72.0,69.9,29.89,NE,56,2.0,3.0,93,0.00,,,0.00,Wunderground v.1.15,2013-07-04 15:15:00,
2013-07-04 10:20:00,72.1,70.0,29.89,NNE,29,2.0,2.0,93,0.00,,,0.00,Wunderground v.1.15,2013-07-04 15:20:00,
2013-07-04 10:25:00,72.3,69.8,29.89,North,10,2.0,2.0,92,0.00,,,0.00,Wunderground v.1.15,2013-07-04 15:25:00,
2013-07-04 10:30:00,72.6,70.1,29.89,NNE,25,2.0,2.0,92,0.00,,,0.00,Wunderground v.1.15,2013-07-04 15:30:00,
2013-07-04 10:35:00,72.9,70.1,29.89,NE,43,2.0,3.0,91,0.00,,,0.00,Wunderground v.1.15,2013-07-04 15:35:00,
2013-07-04 10:40:00,73.1,70.3,29.89,NE,38,2.0,2.0,91,0.00,,,0.00,Wunderground v.1.15,2013-07-04 15:40:00,
2013-07-04 10:45:00,73.4,70.3,29.89,NE,39,2.0,3.0,90,0.00,,,0.00,Wunderground v.1.15,2013-07-04 15:45:00,
2013-07-04 10:50:00,73.7,70.6,29.89,NE,46,2.0,2.0,90,0.00,,,0.00,Wunderground v.1.15,2013-07-04 15:50:00,
2013-07-04 10:55:00,74.2,71.1,29.89,NNE,27,2.0,4.0,90,0.00,,,0.00,Wunderground v.1.15,2013-07-04 15:55:00,
2013-07-04 11:00:00,74.4,70.9,29.89,NNE,25,2.0,2.0,89,0.00,,,0.00,Wunderground v.1.15,2013-07-04 16:00:00,
2013-07-04 11:05:00,74.8,71.0,29.89,NNE,15,2.0,2.0,88,0.00,,,0.00,Wunderground v.1.15,2013-07-04 16:05:00,
2013-07-04 11:10:00,75.1,71.0,29.90,NE,38,2.0,3.0,87,0.00,,,0.00,Wunderground v.1.15,2013-07-04 16:10:00,
2013-07-04 11:20:00,76.0,71.2,29.90,NNE,18,2.0,3.0,85,0.00,,,0.00,Wunderground v.1.15,2013-07-04 16:20:00,
2013-07-04 11:25:00,76.3,71.5,29.89,NNE,32,3.0,3.0,85,0.00,,,0.00,Wunderground v.1.15,2013-07-04 16:25:00,
2013-07-04 11:35:00,77.2,71.6,29.89,NE,46,4.0,6.0,83,0.00,,,0.00,Wunderground v.1.15,2013-07-04 16:35:00,
2013-07-04 11:40:00,78.1,71.8,29.89,NE,38,3.0,6.0,81,0.00,,,0.00,Wunderground v.1.15,2013-07-04 16:40:00,
2013-07-04 11:45:00,78.6,71.5,29.89,ENE,66,3.0,6.0,79,0.00,,,0.00,Wunderground v.1.15,2013-07-04 16:45:00,
2013-07-04 11:50:00,78.5,71.4,29.89,NE,40,3.0,3.0,79,0.00,,,0.00,Wunderground v.1.15,2013-07-04 16:50:00,
2013-07-04 12:00:00,79.1,71.6,29.89,NE,42,2.0,2.0,78,0.00,,,0.00,Wunderground v.1.15,2013-07-04 17:00:00,
2013-07-04 12:05:00,80.4,72.1,29.89,ENE,67,1.0,3.0,76,0.00,,,0.00,Wunderground v.1.15,2013-07-04 17:05:00,
2013-07-04 12:10:00,81.5,72.0,29.89,NE,41,2.0,4.0,73,0.00,,,0.00,Wunderground v.1.15,2013-07-04 17:10:00,
2013-07-04 12:15:00,81.0,71.5,29.89,NE,49,3.0,4.0,73,0.00,,,0.00,Wunderground v.1.15,2013-07-04 17:15:00,
2013-07-04 12:20:00,81.1,71.6,29.89,NE,36,3.0,3.0,73,0.00,,,0.00,Wunderground v.1.15,2013-07-04 17:20:00,
2013-07-04 12:25:00,81.6,72.5,29.89,NE,47,2.0,5.0,74,0.00,,,0.00,Wunderground v.1.15,2013-07-04 17:25:00,
2013-07-04 12:30:00,82.0,72.1,29.89,NNE,25,2.0,2.0,72,0.00,,,0.00,Wunderground v.1.15,2013-07-04 17:30:00,
2013-07-04 12:35:00,82.0,72.1,29.89,North,11,2.0,2.0,72,0.00,,,0.00,Wunderground v.1.15,2013-07-04 17:35:00,
2013-07-04 12:40:00,82.4,72.0,29.89,ENE,76,2.0,3.0,71,0.00,,,0.00,Wunderground v.1.15,2013-07-04 17:40:00,
2013-07-04 12:45:00,83.1,71.9,29.89,East,87,2.0,3.0,69,0.00,,,0.00,Wunderground v.1.15,2013-07-04 17:45:00,
2013-07-04 12:50:00,83.1,72.7,29.89,NE,47,2.0,2.0,71,0.00,,,0.00,Wunderground v.1.15,2013-07-04 17:50:00,
2013-07-04 12:55:00,83.7,72.4,29.87,NNE,14,1.0,2.0,69,0.00,,,0.00,Wunderground v.1.15,2013-07-04 17:55:00,
2013-07-04 13:00:00,83.9,72.2,29.87,NE,51,1.0,2.0,68,0.00,,,0.00,Wunderground v.1.15,2013-07-04 18:00:00,
2013-07-04 13:05:00,83.6,72.3,29.87,NE,38,2.0,3.0,69,0.00,,,0.00,Wunderground v.1.15,2013-07-04 18:05:00,
2013-07-04 13:10:00,83.1,71.9,29.87,NE,46,2.0,2.0,69,0.00,,,0.00,Wunderground v.1.15,2013-07-04 18:10:00,
2013-07-04 13:15:00,82.5,71.7,29.87,ENE,69,2.0,3.0,70,0.00,,,0.00,Wunderground v.1.15,2013-07-04 18:15:00,
2013-07-04 13:20:00,82.0,72.5,29.87,NNE,30,2.0,2.0,73,0.00,,,0.00,Wunderground v.1.15,2013-07-04 18:20:00,
2013-07-04 13:25:00,82.6,71.4,29.87,ENE,59,2.0,3.0,69,0.00,,,0.00,Wunderground v.1.15,2013-07-04 18:25:00,
2013-07-04 13:30:00,83.7,72.0,29.87,NE,44,3.0,3.0,68,0.00,,,0.00,Wunderground v.1.15,2013-07-04 18:30:00,
2013-07-04 13:35:00,84.0,71.9,29.87,NE,44,3.0,3.0,67,0.00,,,0.00,Wunderground v.1.15,2013-07-04 18:35:00,
2013-07-04 13:40:00,83.5,71.8,29.86,NNE,30,2.0,2.0,68,0.00,,,0.00,Wunderground v.1.15,2013-07-04 18:40:00,
2013-07-04 13:45:00,82.6,72.2,29.86,NE,49,2.0,2.0,71,0.00,,,0.00,Wunderground v.1.15,2013-07-04 18:45:00,
2013-07-04 13:50:00,82.0,72.1,29.86,NE,55,3.0,3.0,72,0.00,,,0.00,Wunderground v.1.15,2013-07-04 18:50:00,
2013-07-04 13:55:00,82.7,72.3,29.86,NNE,26,2.0,3.0,71,0.00,,,0.00,Wunderground v.1.15,2013-07-04 18:55:00,
2013-07-04 14:00:00,82.7,72.3,29.86,NE,53,2.0,3.0,71,0.00,,,0.00,Wunderground v.1.15,2013-07-04 19:00:00,
2013-07-04 14:05:00,82.2,72.3,29.86,NE,40,3.0,3.0,72,0.00,,,0.00,Wunderground v.1.15,2013-07-04 19:05:00,
2013-07-04 14:10:00,81.4,71.9,29.86,NE,50,3.0,3.0,73,0.00,,,0.00,Wunderground v.1.15,2013-07-04 19:10:00,
2013-07-04 14:15:00,80.9,71.8,29.86,NE,55,3.0,3.0,74,0.00,,,0.00,Wunderground v.1.15,2013-07-04 19:15:00,
2013-07-04 14:20:00,81.0,72.3,29.86,ENE,67,2.0,2.0,75,0.00,,,0.00,Wunderground v.1.15,2013-07-04 19:20:00,
2013-07-04 14:25:00,81.3,72.2,29.85,East,90,1.0,2.0,74,0.00,,,0.00,Wunderground v.1.15,2013-07-04 19:25:00,
2013-07-04 14:30:00,81.7,72.2,29.85,NE,50,1.0,3.0,73,0.00,,,0.00,Wunderground v.1.15,2013-07-04 19:30:00,
2013-07-04 14:35:00,82.4,72.0,29.85,NE,50,2.0,3.0,71,0.00,,,0.00,Wunderground v.1.15,2013-07-04 19:35:00,
2013-07-04 14:40:00,83.4,72.6,29.84,North,9,2.0,2.0,70,0.00,,,0.00,Wunderground v.1.15,2013-07-04 19:40:00,
2013-07-04 14:45:00,84.1,72.0,29.84,NE,40,1.0,4.0,67,0.00,,,0.00,Wunderground v.1.15,2013-07-04 19:45:00,
2013-07-04 14:50:00,83.6,72.3,29.84,NNE,19,2.0,2.0,69,0.00,,,0.00,Wunderground v.1.15,2013-07-04 19:50:00,
2013-07-04 14:55:00,83.6,71.9,29.84,NE,41,2.0,2.0,68,0.00,,,0.00,Wunderground v.1.15,2013-07-04 19:55:00,
2013-07-04 15:00:00,84.4,73.1,29.84,ESE,106,1.0,1.0,69,0.00,,,0.00,Wunderground v.1.15,2013-07-04 20:00:00,
2013-07-04 15:05:00,85.2,73.0,29.84,South,169,1.0,1.0,67,0.00,,,0.00,Wunderground v.1.15,2013-07-04 20:05:00,
2013-07-04 15:10:00,86.0,73.3,29.83,NE,40,1.0,1.0,66,0.00,,,0.00,Wunderground v.1.15,2013-07-04 20:10:00,
2013-07-04 15:15:00,86.9,73.3,29.83,SE,146,2.0,2.0,64,0.00,,,0.00,Wunderground v.1.15,2013-07-04 20:15:00,
2013-07-04 15:20:00,87.2,73.5,29.83,SSW,209,1.0,1.0,64,0.00,,,0.00,Wunderground v.1.15,2013-07-04 20:20:00,
2013-07-04 15:25:00,88.1,72.5,29.82,NE,46,1.0,2.0,60,0.00,,,0.00,Wunderground v.1.15,2013-07-04 20:25:00,
2013-07-04 15:30:00,88.4,73.2,29.82,NE,51,1.0,1.0,61,0.00,,,0.00,Wunderground v.1.15,2013-07-04 20:30:00,
2013-07-04 15:35:00,88.5,71.3,29.82,ENE,57,2.0,2.0,57,0.00,,,0.00,Wunderground v.1.15,2013-07-04 20:35:00,
2013-07-04 15:40:00,88.3,71.1,29.82,WSW,250,2.0,2.0,57,0.00,,,0.00,Wunderground v.1.15,2013-07-04 20:40:00,
2013-07-04 15:50:00,89.4,71.6,29.82,NNE,24,2.0,6.0,56,0.00,,,0.00,Wunderground v.1.15,2013-07-04 20:50:00,
2013-07-04 15:55:00,89.0,70.7,29.82,NE,46,2.0,6.0,55,0.00,,,0.00,Wunderground v.1.15,2013-07-04 20:55:00,
2013-07-04 16:00:00,88.5,70.3,29.82,NNW,340,2.0,6.0,55,0.00,,,0.00,Wunderground v.1.15,2013-07-04 21:00:00,
2013-07-04 16:05:00,88.2,71.0,29.82,NE,51,2.0,6.0,57,0.00,,,0.00,Wunderground v.1.15,2013-07-04 21:05:00,
2013-07-04 16:10:00,88.2,71.0,29.81,East,95,2.0,2.0,57,0.00,,,0.00,Wunderground v.1.15,2013-07-04 21:10:00,
2013-07-04 16:15:00,89.5,71.7,29.81,NE,48,1.0,3.0,56,0.00,,,0.00,Wunderground v.1.15,2013-07-04 21:15:00,
2013-07-04 16:20:00,88.7,70.5,29.81,NE,35,2.0,6.0,55,0.00,,,0.00,Wunderground v.1.15,2013-07-04 21:20:00,
2013-07-04 16:25:00,87.5,70.4,29.81,NE,45,3.0,6.0,57,0.00,,,0.00,Wunderground v.1.15,2013-07-04 21:25:00,
2013-07-04 16:30:00,87.4,70.3,29.81,NE,45,2.0,6.0,57,0.00,,,0.00,Wunderground v.1.15,2013-07-04 21:30:00,
2013-07-04 16:35:00,86.8,70.8,29.81,NE,46,1.0,6.0,59,0.00,,,0.00,Wunderground v.1.15,2013-07-04 21:35:00,
2013-07-04 16:40:00,86.8,70.2,29.81,ENE,60,2.0,2.0,58,0.00,,,0.00,Wunderground v.1.15,2013-07-04 21:40:00,
2013-07-04 16:45:00,86.7,71.6,29.81,NE,53,1.0,6.0,61,0.00,,,0.00,Wunderground v.1.15,2013-07-04 21:45:00,
2013-07-04 16:50:00,86.9,72.8,29.81,NE,52,0.0,6.0,63,0.00,,,0.00,Wunderground v.1.15,2013-07-04 21:50:00,
2013-07-04 16:55:00,87.7,72.1,29.81,NE,49,0.0,6.0,60,0.00,,,0.00,Wunderground v.1.15,2013-07-04 21:55:00,
2013-07-04 17:00:00,88.3,71.6,29.81,NNE,16,1.0,6.0,58,0.00,,,0.00,Wunderground v.1.15,2013-07-04 22:00:00,
2013-07-04 17:05:00,88.3,71.1,29.81,NE,53,2.0,6.0,57,0.00,,,0.00,Wunderground v.1.15,2013-07-04 22:05:00,
2013-07-04 17:10:00,87.4,70.8,29.81,NE,56,2.0,6.0,58,0.00,,,0.00,Wunderground v.1.15,2013-07-04 22:10:00,
2013-07-04 17:15:00,86.6,71.1,29.81,ENE,57,1.0,6.0,60,0.00,,,0.00,Wunderground v.1.15,2013-07-04 22:15:00,
2013-07-04 17:20:00,86.6,72.5,29.81,NE,47,1.0,6.0,63,0.00,,,0.00,Wunderground v.1.15,2013-07-04 22:20:00,
2013-07-04 17:25:00,86.6,72.0,29.80,NE,50,1.0,6.0,62,0.00,,,0.00,Wunderground v.1.15,2013-07-04 22:25:00,
2013-07-04 17:30:00,86.0,71.5,29.80,NE,45,2.0,2.0,62,0.00,,,0.00,Wunderground v.1.15,2013-07-04 22:30:00,
2013-07-04 17:35:00,85.6,72.0,29.80,NE,45,1.0,6.0,64,0.00,,,0.00,Wunderground v.1.15,2013-07-04 22:35:00,
2013-07-04 17:40:00,85.2,73.0,29.80,NE,45,1.0,6.0,67,0.00,,,0.00,Wunderground v.1.15,2013-07-04 22:40:00,
2013-07-04 17:45:00,84.8,73.5,29.80,NE,45,1.0,6.0,69,0.00,,,0.00,Wunderground v.1.15,2013-07-04 22:45:00,
2013-07-04 17:50:00,84.9,72.3,29.80,NE,45,0.0,6.0,66,0.00,,,0.00,Wunderground v.1.15,2013-07-04 22:50:00,
2013-07-04 17:55:00,85.0,72.8,29.81,ENE,59,1.0,6.0,67,0.00,,,0.00,Wunderground v.1.15,2013-07-04 22:55:00,
2013-07-04 18:00:00,84.9,71.8,29.81,ENE,59,1.0,1.0,65,0.00,,,0.00,Wunderground v.1.15,2013-07-04 23:00:00,
2013-07-04 18:05:00,85.0,72.4,29.81,ENE,59,1.0,6.0,66,0.00,,,0.00,Wunderground v.1.15,2013-07-04 23:05:00,
2013-07-04 18:10:00,85.0,74.1,29.81,ENE,59,0.0,6.0,70,0.00,,,0.00,Wunderground v.1.15,2013-07-04 23:10:00,
2013-07-04 18:15:00,84.7,74.3,29.81,ENE,59,0.0,6.0,71,0.00,,,0.00,Wunderground v.1.15,2013-07-04 23:15:00,
2013-07-04 18:20:00,84.1,74.5,29.81,ENE,59,1.0,6.0,73,0.00,,,0.00,Wunderground v.1.15,2013-07-04 23:20:00,
2013-07-04 18:25:00,83.7,74.5,29.81,ENE,59,1.0,6.0,74,0.00,,,0.00,Wunderground v.1.15,2013-07-04 23:25:00,
2013-07-04 18:30:00,83.5,73.5,29.81,ENE,59,0.0,6.0,72,0.00,,,0.00,Wunderground v.1.15,2013-07-04 23:30:00,
2013-07-04 18:35:00,83.7,74.1,29.81,ENE,59,0.0,6.0,73,0.00,,,0.00,Wunderground v.1.15,2013-07-04 23:35:00,
2013-07-04 18:40:00,83.5,73.1,29.81,ENE,59,0.0,6.0,71,0.00,,,0.00,Wunderground v.1.15,2013-07-04 23:40:00,
2013-07-04 18:45:00,83.5,73.5,29.81,ENE,59,0.0,6.0,72,0.00,,,0.00,Wunderground v.1.15,2013-07-04 23:45:00,
2013-07-04 18:50:00,83.2,73.2,29.81,ENE,59,0.0,6.0,72,0.00,,,0.00,Wunderground v.1.15,2013-07-04 23:50:00,
2013-07-04 18:55:00,82.8,73.3,29.81,ENE,59,0.0,6.0,73,0.00,,,0.00,Wunderground v.1.15,2013-07-04 23:55:00,
2013-07-04 19:00:00,82.4,73.3,29.81,ENE,59,0.0,6.0,74,0.00,,,0.00,Wunderground v.1.15,2013-07-05 00:00:00,
2013-07-04 19:05:00,82.0,72.9,29.81,ENE,59,0.0,6.0,74,0.00,,,0.00,Wunderground v.1.15,2013-07-05 00:05:00,
2013-07-04 19:10:00,81.4,73.1,29.82,ENE,59,0.0,6.0,76,0.00,,,0.00,Wunderground v.1.15,2013-07-05 00:10:00,
2013-07-04 19:15:00,80.8,72.5,29.82,ENE,59,0.0,6.0,76,0.00,,,0.00,Wunderground v.1.15,2013-07-05 00:15:00,
2013-07-04 19:20:00,80.4,72.9,29.82,ENE,59,1.0,1.0,78,0.00,,,0.00,Wunderground v.1.15,2013-07-05 00:20:00,
2013-07-04 19:25:00,80.0,72.1,29.82,ENE,59,0.0,6.0,77,0.00,,,0.00,Wunderground v.1.15,2013-07-05 00:25:00,
2013-07-04 19:30:00,79.8,72.7,29.82,ENE,59,0.0,6.0,79,0.00,,,0.00,Wunderground v.1.15,2013-07-05 00:30:00,
2013-07-04 19:35:00,79.6,72.5,29.82,ENE,59,0.0,6.0,79,0.00,,,0.00,Wunderground v.1.15,2013-07-05 00:35:00,
2013-07-04 19:40:00,79.2,72.1,29.82,ENE,59,0.0,6.0,79,0.00,,,0.00,Wunderground v.1.15,2013-07-05 00:40:00,
2013-07-04 19:45:00,79.0,71.9,29.82,ENE,59,0.0,6.0,79,0.00,,,0.00,Wunderground v.1.15,2013-07-05 00:45:00,
2013-07-04 19:50:00,78.9,72.2,29.82,ENE,59,0.0,6.0,80,0.00,,,0.00,Wunderground v.1.15,2013-07-05 00:50:00,
2013-07-04 19:55:00,78.7,72.4,29.83,ENE,59,0.0,6.0,81,0.00,,,0.00,Wunderground v.1.15,2013-07-05 00:55:00,
2013-07-04 20:00:00,78.5,72.2,29.83,ENE,59,0.0,6.0,81,0.00,,,0.00,Wunderground v.1.15,2013-07-05 01:00:00,
2013-07-04 20:05:00,78.4,71.7,29.83,ENE,59,0.0,6.0,80,0.00,,,0.00,Wunderground v.1.15,2013-07-05 01:05:00,
2013-07-04 20:10:00,78.3,71.6,29.83,ENE,59,0.0,6.0,80,0.00,,,0.00,Wunderground v.1.15,2013-07-05 01:10:00,
2013-07-04 20:15:00,78.2,71.9,29.83,ENE,59,0.0,6.0,81,0.00,,,0.00,Wunderground v.1.15,2013-07-05 01:15:00,
2013-07-04 20:20:00,78.1,72.2,29.83,ENE,59,0.0,6.0,82,0.00,,,0.00,Wunderground v.1.15,2013-07-05 01:20:00,
2013-07-04 20:25:00,77.8,72.2,29.83,ENE,59,1.0,6.0,83,0.00,,,0.00,Wunderground v.1.15,2013-07-05 01:25:00,
2013-07-04 20:30:00,77.5,71.9,29.83,ENE,59,1.0,1.0,83,0.00,,,0.00,Wunderground v.1.15,2013-07-05 01:30:00,
2013-07-04 20:35:00,77.3,71.7,29.83,ENE,59,0.0,6.0,83,0.00,,,0.00,Wunderground v.1.15,2013-07-05 01:35:00,
2013-07-04 20:40:00,77.1,71.9,29.83,ENE,59,0.0,6.0,84,0.00,,,0.00,Wunderground v.1.15,2013-07-05 01:40:00,
2013-07-04 20:45:00,76.9,71.3,29.83,ENE,59,0.0,6.0,83,0.00,,,0.00,Wunderground v.1.15,2013-07-05 01:45:00,
2013-07-04 20:50:00,76.8,71.6,29.83,ENE,59,0.0,6.0,84,0.00,,,0.00,Wunderground v.1.15,2013-07-05 01:50:00,
2013-07-04 20:55:00,76.6,71.4,29.83,ENE,59,0.0,6.0,84,0.00,,,0.00,Wunderground v.1.15,2013-07-05 01:55:00,
2013-07-04 21:00:00,76.4,71.6,29.83,ENE,59,0.0,6.0,85,0.00,,,0.00,Wunderground v.1.15,2013-07-05 02:00:00,
2013-07-04 21:05:00,76.2,71.4,29.83,ENE,59,0.0,6.0,85,0.00,,,0.00,Wunderground v.1.15,2013-07-05 02:05:00,
2013-07-04 21:10:00,76.0,71.5,29.84,ENE,59,0.0,6.0,86,0.00,,,0.00,Wunderground v.1.15,2013-07-05 02:10:00,
2013-07-04 21:15:00,75.8,71.3,29.84,ENE,59,0.0,6.0,86,0.00,,,0.00,Wunderground v.1.15,2013-07-05 02:15:00,
2013-07-04 21:20:00,75.7,71.6,29.84,ENE,59,1.0,6.0,87,0.00,,,0.00,Wunderground v.1.15,2013-07-05 02:20:00,
2013-07-04 21:25:00,75.5,71.4,29.84,ENE,59,1.0,6.0,87,0.00,,,0.00,Wunderground v.1.15,2013-07-05 02:25:00,
2013-07-04 21:35:00,75.4,71.3,29.84,ENE,59,1.0,6.0,87,0.00,,,0.00,Wunderground v.1.15,2013-07-05 02:35:00,
2013-07-04 21:40:00,75.4,71.3,29.85,ENE,59,0.0,6.0,87,0.00,,,0.00,Wunderground v.1.15,2013-07-05 02:40:00,
2013-07-04 21:45:00,75.4,71.3,29.85,ENE,59,1.0,6.0,87,0.00,,,0.00,Wunderground v.1.15,2013-07-05 02:45:00,
2013-07-04 21:50:00,75.4,71.3,29.85,ENE,59,1.0,1.0,87,0.00,,,0.00,Wunderground v.1.15,2013-07-05 02:50:00,
2013-07-04 21:55:00,75.4,71.3,29.86,ENE,59,1.0,6.0,87,0.00,,,0.00,Wunderground v.1.15,2013-07-05 02:55:00,
2013-07-04 22:00:00,75.3,71.2,29.86,ENE,59,1.0,1.0,87,0.00,,,0.00,Wunderground v.1.15,2013-07-05 03:00:00,
2013-07-04 22:05:00,75.3,71.2,29.86,ENE,59,0.0,6.0,87,0.00,,,0.00,Wunderground v.1.15,2013-07-05 03:05:00,
2013-07-04 22:10:00,75.2,71.1,29.86,ENE,59,1.0,6.0,87,0.00,,,0.00,Wunderground v.1.15,2013-07-05 03:10:00,
2013-07-04 22:15:00,75.2,71.1,29.86,ENE,59,1.0,6.0,87,0.00,,,0.00,Wunderground v.1.15,2013-07-05 03:15:00,
2013-07-04 22:20:00,75.2,71.1,29.86,ENE,59,0.0,6.0,87,0.00,,,0.00,Wunderground v.1.15,2013-07-05 03:20:00,
2013-07-04 22:25:00,75.3,71.2,29.86,ENE,59,0.0,6.0,87,0.00,,,0.00,Wunderground v.1.15,2013-07-05 03:25:00,
2013-07-04 22:30:00,75.2,71.1,29.86,ENE,59,1.0,1.0,87,0.00,,,0.00,Wunderground v.1.15,2013-07-05 03:30:00,
2013-07-04 22:35:00,75.3,70.8,29.86,ENE,59,1.0,6.0,86,0.00,,,0.00,Wunderground v.1.15,2013-07-05 03:35:00,
2013-07-04 22:40:00,75.4,70.9,29.86,ENE,59,0.0,6.0,86,0.00,,,0.00,Wunderground v.1.15,2013-07-05 03:40:00,
2013-07-04 22:45:00,75.6,71.1,29.86,NE,53,1.0,6.0,86,0.00,,,0.00,Wunderground v.1.15,2013-07-05 03:45:00,
2013-07-04 22:50:00,75.7,71.2,29.86,NE,45,2.0,6.0,86,0.00,,,0.00,Wunderground v.1.15,2013-07-05 03:50:00,
2013-07-04 22:55:00,75.7,71.2,29.87,NNE,31,2.0,6.0,86,0.00,,,0.00,Wunderground v.1.15,2013-07-05 03:55:00,
2013-07-04 23:00:00,75.5,71.0,29.87,NNE,32,1.0,6.0,86,0.00,,,0.00,Wunderground v.1.15,2013-07-05 04:00:00,
2013-07-04 23:05:00,75.3,71.2,29.87,ENE,76,1.0,6.0,87,0.00,,,0.00,Wunderground v.1.15,2013-07-05 04:05:00,
2013-07-04 23:10:00,75.0,71.2,29.87,NE,46,2.0,6.0,88,0.00,,,0.00,Wunderground v.1.15,2013-07-05 04:10:00,
2013-07-04 23:15:00,74.9,71.1,29.87,ENE,60,2.0,6.0,88,0.00,,,0.00,Wunderground v.1.15,2013-07-05 04:15:00,
2013-07-04 23:20:00,74.7,70.9,29.87,NE,51,1.0,6.0,88,0.00,,,0.00,Wunderground v.1.15,2013-07-05 04:20:00,
2013-07-04 23:25:00,74.6,70.8,29.87,ENE,65,1.0,6.0,88,0.00,,,0.00,Wunderground v.1.15,2013-07-05 04:25:00,
2013-07-04 23:30:00,74.4,70.9,29.87,ENE,65,1.0,6.0,89,0.00,,,0.00,Wunderground v.1.15,2013-07-05 04:30:00,
2013-07-04 23:35:00,74.3,70.8,29.87,NE,51,1.0,6.0,89,0.00,,,0.00,Wunderground v.1.15,2013-07-05 04:35:00,
2013-07-04 23:40:00,74.2,70.7,29.87,ENE,59,2.0,2.0,89,0.00,,,0.00,Wunderground v.1.15,2013-07-05 04:40:00,
2013-07-04 23:45:00,74.0,70.9,29.87,NE,46,2.0,3.0,90,0.00,,,0.00,Wunderground v.1.15,2013-07-05 04:45:00,
2013-07-04 23:50:00,73.8,70.7,29.87,NE,38,3.0,6.0,90,0.00,,,0.00,Wunderground v.1.15,2013-07-05 04:50:00,
2013-07-04 23:55:00,73.4,70.3,29.87,NE,44,4.0,6.0,90,0.00,,,0.00,Wunderground v.1.15,2013-07-05 04:55:00,